Amherst, Virginia
Current Conditions -  °F | °C
As of 7:54 PM on Monday 20 Oct 2014 (Local Time) from KLYH Reporting Station
Broken Clouds Broken Clouds  
Wind Chill: 56°   Ceiling: 10000
Heat Index: 56°   Visibility: 10mi
Dew Point: 48°   Wind: 5mph
Humidity: 75%   Direction: 180°S
Pressure: 29.97"   Gusts: NA
Location:  37.59°N, 79.05°W
Report Text: KLYH 202354Z 18004KT 10SM SCT060 BKN100 13/09 A2997 RMK AO2 SLP150 T01330089 10194 20133 51003
Loading
Personal Weather Stations






























Interactive Weather Map New forecast layout! Learn more

10-Day Weather Forecast

Advertisements
Track Severe Weather on mobile